Terminal Aerodrome Forecast
Issued by NWS Wilmington, OH

Home | Current Version | Previous Version | Text Only | Print | Product List | Glossary On
Versions: 1 2 3 4 5 6 7 8 9 10 11 12 13 14 15 16 17 18 19 20 21 22 23
000
FTUS41 KILN 042352
TAFDAY
TAF
KDAY 042352Z 0500/0524 12008KT 4SM -RA BR SCT006 OVC025
      TEMPO 0500/0503 2SM -RA BR OVC006
     FM050300 27008KT 4SM -RA BR OVC006
     FM050400 28010KT P6SM OVC004
     FM051400 VRB04KT P6SM BKN011
     FM051700 12006KT P6SM SCT015 BKN200
     FM052300 VRB04KT P6SM BKN250=

USA.gov is the U.S. government's official web portal to all federal, state and local government web resources and services.